Terminal Aerodrome Forecast
Issued by NWS Jackson, MS

Current Version | Previous Version | Text Only | Print | Product List | Glossary On
Versions: 1 2 3 4 5 6 7 8 9 10 11 12
000
FTUS44 KJAN 010500
TAFMEI
TAF
KMEI 010523Z 0106/0206 00000KT P6SM OVC150
     FM011500 03005KT P6SM SCT070 BKN100
     FM020000 01003KT P6SM OVC150=

USA.gov is the U.S. government's official web portal to all federal, state and local government web resources and services.